sensor_id;sensor_type;location;lat;lon;timestamp;P1;durP1;ratioP1;P2;durP2;ratioP2
22230;SDS011;11284;48.086;-1.652;2022-12-18T00:01:27;32.50;;;18.77;;
22230;SDS011;11284;48.086;-1.652;2022-12-18T00:03:54;30.08;;;18.77;;
22230;SDS011;11284;48.086;-1.652;2022-12-18T00:06:21;29.88;;;18.52;;
22230;SDS011;11284;48.086;-1.652;2022-12-18T00:08:47;29.30;;;18.75;;
22230;SDS011;11284;48.086;-1.652;2022-12-18T00:11:15;30.17;;;18.42;;
22230;SDS011;11284;48.086;-1.652;2022-12-18T00:13:42;31.27;;;19.10;;
22230;SDS011;11284;48.086;-1.652;2022-12-18T00:16:12;34.35;;;19.10;;
22230;SDS011;11284;48.086;-1.652;2022-12-18T00:18:38;31.67;;;19.10;;
22230;SDS011;11284;48.086;-1.652;2022-12-18T00:21:05;33.60;;;19.13;;
22230;SDS011;11284;48.086;-1.652;2022-12-18T00:23:32;32.70;;;19.05;;
22230;SDS011;11284;48.086;-1.652;2022-12-18T00:26:02;30.75;;;18.35;;
22230;SDS011;11284;48.086;-1.652;2022-12-18T00:28:28;29.65;;;18.40;;
22230;SDS011;11284;48.086;-1.652;2022-12-18T00:31:04;31.60;;;18.83;;
22230;SDS011;11284;48.086;-1.652;2022-12-18T00:33:31;29.13;;;18.35;;
22230;SDS011;11284;48.086;-1.652;2022-12-18T00:36:04;31.67;;;19.58;;
22230;SDS011;11284;48.086;-1.652;2022-12-18T00:38:30;29.98;;;18.30;;
22230;SDS011;11284;48.086;-1.652;2022-12-18T00:40:56;31.25;;;18.60;;
22230;SDS011;11284;48.086;-1.652;2022-12-18T00:43:22;29.88;;;17.73;;
22230;SDS011;11284;48.086;-1.652;2022-12-18T00:45:48;31.20;;;18.90;;
22230;SDS011;11284;48.086;-1.652;2022-12-18T00:48:14;29.42;;;18.73;;
22230;SDS011;11284;48.086;-1.652;2022-12-18T00:50:40;32.25;;;18.65;;
22230;SDS011;11284;48.086;-1.652;2022-12-18T00:53:06;31.95;;;18.48;;
22230;SDS011;11284;48.086;-1.652;2022-12-18T00:55:36;30.52;;;18.80;;
22230;SDS011;11284;48.086;-1.652;2022-12-18T00:58:02;30.00;;;18.17;;
22230;SDS011;11284;48.086;-1.652;2022-12-18T01:00:28;31.10;;;19.48;;
22230;SDS011;11284;48.086;-1.652;2022-12-18T01:02:54;29.38;;;18.48;;
22230;SDS011;11284;48.086;-1.652;2022-12-18T01:05:20;32.70;;;18.77;;
22230;SDS011;11284;48.086;-1.652;2022-12-18T01:07:47;32.13;;;18.80;;
22230;SDS011;11284;48.086;-1.652;2022-12-18T01:10:13;30.75;;;19.00;;
22230;SDS011;11284;48.086;-1.652;2022-12-18T01:12:39;33.45;;;20.27;;
22230;SDS011;11284;48.086;-1.652;2022-12-18T01:15:06;29.85;;;18.02;;
22230;SDS011;11284;48.086;-1.652;2022-12-18T01:17:32;31.35;;;18.23;;
22230;SDS011;11284;48.086;-1.652;2022-12-18T01:19:58;30.13;;;18.33;;
22230;SDS011;11284;48.086;-1.652;2022-12-18T01:22:24;32.30;;;19.08;;
22230;SDS011;11284;48.086;-1.652;2022-12-18T01:24:50;32.55;;;18.80;;
22230;SDS011;11284;48.086;-1.652;2022-12-18T01:27:16;31.95;;;18.75;;
22230;SDS011;11284;48.086;-1.652;2022-12-18T01:29:42;35.70;;;20.10;;
22230;SDS011;11284;48.086;-1.652;2022-12-18T01:32:08;33.28;;;19.02;;
22230;SDS011;11284;48.086;-1.652;2022-12-18T01:34:37;29.92;;;19.23;;
22230;SDS011;11284;48.086;-1.652;2022-12-18T01:37:04;31.30;;;18.77;;
22230;SDS011;11284;48.086;-1.652;2022-12-18T01:39:30;33.20;;;20.10;;
22230;SDS011;11284;48.086;-1.652;2022-12-18T01:42:00;31.60;;;18.85;;
22230;SDS011;11284;48.086;-1.652;2022-12-18T01:47:20;30.77;;;18.55;;
22230;SDS011;11284;48.086;-1.652;2022-12-18T01:49:47;31.73;;;19.83;;
22230;SDS011;11284;48.086;-1.652;2022-12-18T01:52:13;35.30;;;20.23;;
22230;SDS011;11284;48.086;-1.652;2022-12-18T01:54:40;32.47;;;19.42;;
22230;SDS011;11284;48.086;-1.652;2022-12-18T01:57:06;30.70;;;19.38;;
22230;SDS011;11284;48.086;-1.652;2022-12-18T01:59:32;33.80;;;20.38;;
22230;SDS011;11284;48.086;-1.652;2022-12-18T02:01:59;32.38;;;19.50;;
22230;SDS011;11284;48.086;-1.652;2022-12-18T02:04:26;32.40;;;19.27;;
22230;SDS011;11284;48.086;-1.652;2022-12-18T02:06:59;32.53;;;19.30;;
22230;SDS011;11284;48.086;-1.652;2022-12-18T02:09:28;30.65;;;19.35;;
22230;SDS011;11284;48.086;-1.652;2022-12-18T02:17:18;31.02;;;19.20;;
22230;SDS011;11284;48.086;-1.652;2022-12-18T02:27:09;35.40;;;20.15;;
22230;SDS011;11284;48.086;-1.652;2022-12-18T02:29:40;30.10;;;19.27;;
22230;SDS011;11284;48.086;-1.652;2022-12-18T02:32:10;32.10;;;18.90;;
22230;SDS011;11284;48.086;-1.652;2022-12-18T02:34:38;29.98;;;18.60;;
22230;SDS011;11284;48.086;-1.652;2022-12-18T02:37:05;32.28;;;19.55;;
22230;SDS011;11284;48.086;-1.652;2022-12-18T02:39:32;31.92;;;19.05;;
22230;SDS011;11284;48.086;-1.652;2022-12-18T02:41:59;31.67;;;18.98;;
22230;SDS011;11284;48.086;-1.652;2022-12-18T02:44:27;34.60;;;20.40;;
22230;SDS011;11284;48.086;-1.652;2022-12-18T02:46:53;30.20;;;19.10;;
22230;SDS011;11284;48.086;-1.652;2022-12-18T02:52:24;31.08;;;19.45;;
22230;SDS011;11284;48.086;-1.652;2022-12-18T02:57:19;32.83;;;19.25;;
22230;SDS011;11284;48.086;-1.652;2022-12-18T02:59:58;31.67;;;19.00;;
22230;SDS011;11284;48.086;-1.652;2022-12-18T03:04:59;30.23;;;18.88;;
22230;SDS011;11284;48.086;-1.652;2022-12-18T03:07:27;29.85;;;19.42;;
22230;SDS011;11284;48.086;-1.652;2022-12-18T03:09:59;30.85;;;19.00;;
22230;SDS011;11284;48.086;-1.652;2022-12-18T03:12:30;31.98;;;18.77;;
22230;SDS011;11284;48.086;-1.652;2022-12-18T03:15:04;30.08;;;17.88;;
22230;SDS011;11284;48.086;-1.652;2022-12-18T03:17:33;31.40;;;18.45;;
22230;SDS011;11284;48.086;-1.652;2022-12-18T03:20:10;30.00;;;18.40;;
22230;SDS011;11284;48.086;-1.652;2022-12-18T03:22:37;30.75;;;18.58;;
22230;SDS011;11284;48.086;-1.652;2022-12-18T03:25:05;30.05;;;18.95;;
22230;SDS011;11284;48.086;-1.652;2022-12-18T03:27:32;30.83;;;19.48;;
22230;SDS011;11284;48.086;-1.652;2022-12-18T03:30:05;30.20;;;19.10;;
22230;SDS011;11284;48.086;-1.652;2022-12-18T03:32:39;31.23;;;19.48;;
22230;SDS011;11284;48.086;-1.652;2022-12-18T03:35:07;28.83;;;17.70;;
22230;SDS011;11284;48.086;-1.652;2022-12-18T03:37:34;29.70;;;18.88;;
22230;SDS011;11284;48.086;-1.652;2022-12-18T03:40:00;31.92;;;19.02;;
22230;SDS011;11284;48.086;-1.652;2022-12-18T03:42:28;34.58;;;19.42;;
22230;SDS011;11284;48.086;-1.652;2022-12-18T03:45:04;31.38;;;18.92;;
22230;SDS011;11284;48.086;-1.652;2022-12-18T03:52:50;32.13;;;18.95;;
22230;SDS011;11284;48.086;-1.652;2022-12-18T03:55:18;34.40;;;18.60;;
22230;SDS011;11284;48.086;-1.652;2022-12-18T03:57:45;31.77;;;18.75;;
22230;SDS011;11284;48.086;-1.652;2022-12-18T04:00:12;32.90;;;18.63;;
22230;SDS011;11284;48.086;-1.652;2022-12-18T04:02:39;34.25;;;19.67;;
22230;SDS011;11284;48.086;-1.652;2022-12-18T04:05:06;28.77;;;18.50;;
22230;SDS011;11284;48.086;-1.652;2022-12-18T04:07:33;31.00;;;19.17;;
22230;SDS011;11284;48.086;-1.652;2022-12-18T04:09:59;32.22;;;18.75;;
22230;SDS011;11284;48.086;-1.652;2022-12-18T04:12:28;30.58;;;19.13;;
22230;SDS011;11284;48.086;-1.652;2022-12-18T04:14:54;30.20;;;18.50;;
22230;SDS011;11284;48.086;-1.652;2022-12-18T04:17:20;31.20;;;18.63;;
22230;SDS011;11284;48.086;-1.652;2022-12-18T04:19:47;29.25;;;17.73;;
22230;SDS011;11284;48.086;-1.652;2022-12-18T04:22:13;29.60;;;18.67;;
22230;SDS011;11284;48.086;-1.652;2022-12-18T04:24:39;28.35;;;18.33;;
22230;SDS011;11284;48.086;-1.652;2022-12-18T04:27:05;30.65;;;18.52;;
22230;SDS011;11284;48.086;-1.652;2022-12-18T04:29:31;26.70;;;17.77;;
22230;SDS011;11284;48.086;-1.652;2022-12-18T04:31:57;30.33;;;17.73;;
22230;SDS011;11284;48.086;-1.652;2022-12-18T04:34:24;34.45;;;19.77;;
22230;SDS011;11284;48.086;-1.652;2022-12-18T04:36:50;30.67;;;17.88;;
22230;SDS011;11284;48.086;-1.652;2022-12-18T04:39:16;30.30;;;18.98;;
22230;SDS011;11284;48.086;-1.652;2022-12-18T04:41:42;29.85;;;18.02;;
22230;SDS011;11284;48.086;-1.652;2022-12-18T04:44:08;29.77;;;18.52;;
22230;SDS011;11284;48.086;-1.652;2022-12-18T04:46:34;30.50;;;18.83;;
22230;SDS011;11284;48.086;-1.652;2022-12-18T04:49:00;32.60;;;18.73;;
22230;SDS011;11284;48.086;-1.652;2022-12-18T04:51:26;29.15;;;18.42;;
22230;SDS011;11284;48.086;-1.652;2022-12-18T04:53:52;29.67;;;18.13;;
22230;SDS011;11284;48.086;-1.652;2022-12-18T04:56:18;29.38;;;17.23;;
22230;SDS011;11284;48.086;-1.652;2022-12-18T04:58:44;30.75;;;19.00;;
22230;SDS011;11284;48.086;-1.652;2022-12-18T05:01:11;30.23;;;17.25;;
22230;SDS011;11284;48.086;-1.652;2022-12-18T05:03:38;30.02;;;18.27;;
22230;SDS011;11284;48.086;-1.652;2022-12-18T05:06:04;28.38;;;17.88;;
22230;SDS011;11284;48.086;-1.652;2022-12-18T05:08:30;29.85;;;18.38;;
22230;SDS011;11284;48.086;-1.652;2022-12-18T05:11:00;29.88;;;17.33;;
22230;SDS011;11284;48.086;-1.652;2022-12-18T05:13:27;31.88;;;18.20;;
22230;SDS011;11284;48.086;-1.652;2022-12-18T05:15:53;29.65;;;17.35;;
22230;SDS011;11284;48.086;-1.652;2022-12-18T05:18:20;30.92;;;18.63;;
22230;SDS011;11284;48.086;-1.652;2022-12-18T05:20:46;31.45;;;17.77;;
22230;SDS011;11284;48.086;-1.652;2022-12-18T05:23:12;29.65;;;17.48;;
22230;SDS011;11284;48.086;-1.652;2022-12-18T05:25:38;27.73;;;17.98;;
22230;SDS011;11284;48.086;-1.652;2022-12-18T05:28:04;31.45;;;18.20;;
22230;SDS011;11284;48.086;-1.652;2022-12-18T05:30:30;29.80;;;17.30;;
22230;SDS011;11284;48.086;-1.652;2022-12-18T05:32:56;31.30;;;18.00;;
22230;SDS011;11284;48.086;-1.652;2022-12-18T05:35:22;32.30;;;19.20;;
22230;SDS011;11284;48.086;-1.652;2022-12-18T05:37:48;28.58;;;17.88;;
22230;SDS011;11284;48.086;-1.652;2022-12-18T05:40:14;30.13;;;17.83;;
22230;SDS011;11284;48.086;-1.652;2022-12-18T05:42:40;30.58;;;18.20;;
22230;SDS011;11284;48.086;-1.652;2022-12-18T05:45:06;28.88;;;17.20;;
22230;SDS011;11284;48.086;-1.652;2022-12-18T05:47:32;29.90;;;18.17;;
22230;SDS011;11284;48.086;-1.652;2022-12-18T05:49:58;28.55;;;17.70;;
22230;SDS011;11284;48.086;-1.652;2022-12-18T05:52:24;28.42;;;17.15;;
22230;SDS011;11284;48.086;-1.652;2022-12-18T05:54:50;29.25;;;17.75;;
22230;SDS011;11284;48.086;-1.652;2022-12-18T05:57:16;28.30;;;17.10;;
22230;SDS011;11284;48.086;-1.652;2022-12-18T05:59:42;28.83;;;17.05;;
22230;SDS011;11284;48.086;-1.652;2022-12-18T06:02:08;28.95;;;18.13;;
22230;SDS011;11284;48.086;-1.652;2022-12-18T06:04:34;27.67;;;17.65;;
22230;SDS011;11284;48.086;-1.652;2022-12-18T06:07:00;29.52;;;18.08;;
22230;SDS011;11284;48.086;-1.652;2022-12-18T06:09:30;28.92;;;17.70;;
22230;SDS011;11284;48.086;-1.652;2022-12-18T06:11:56;24.63;;;16.52;;
22230;SDS011;11284;48.086;-1.652;2022-12-18T06:14:22;30.02;;;17.80;;
22230;SDS011;11284;48.086;-1.652;2022-12-18T06:16:50;26.80;;;17.35;;
22230;SDS011;11284;48.086;-1.652;2022-12-18T06:19:17;27.42;;;17.85;;
22230;SDS011;11284;48.086;-1.652;2022-12-18T06:21:43;28.02;;;17.02;;
22230;SDS011;11284;48.086;-1.652;2022-12-18T06:24:09;30.50;;;17.73;;
22230;SDS011;11284;48.086;-1.652;2022-12-18T06:26:38;28.13;;;17.60;;
22230;SDS011;11284;48.086;-1.652;2022-12-18T06:29:04;28.45;;;17.33;;
22230;SDS011;11284;48.086;-1.652;2022-12-18T06:31:30;28.85;;;17.60;;
22230;SDS011;11284;48.086;-1.652;2022-12-18T06:33:56;29.00;;;17.80;;
22230;SDS011;11284;48.086;-1.652;2022-12-18T06:36:23;29.20;;;18.30;;
22230;SDS011;11284;48.086;-1.652;2022-12-18T06:38:49;31.13;;;18.27;;
22230;SDS011;11284;48.086;-1.652;2022-12-18T06:41:16;28.10;;;16.77;;
22230;SDS011;11284;48.086;-1.652;2022-12-18T06:43:42;28.75;;;18.15;;
22230;SDS011;11284;48.086;-1.652;2022-12-18T06:46:08;28.42;;;17.48;;
22230;SDS011;11284;48.086;-1.652;2022-12-18T06:48:35;25.40;;;16.75;;
22230;SDS011;11284;48.086;-1.652;2022-12-18T06:51:01;29.80;;;17.58;;
22230;SDS011;11284;48.086;-1.652;2022-12-18T06:53:27;30.80;;;17.60;;
22230;SDS011;11284;48.086;-1.652;2022-12-18T06:55:59;29.70;;;17.65;;
22230;SDS011;11284;48.086;-1.652;2022-12-18T06:58:25;28.17;;;17.55;;
22230;SDS011;11284;48.086;-1.652;2022-12-18T07:00:51;33.53;;;17.88;;
22230;SDS011;11284;48.086;-1.652;2022-12-18T07:03:17;26.83;;;17.35;;
22230;SDS011;11284;48.086;-1.652;2022-12-18T07:05:43;27.85;;;17.58;;
22230;SDS011;11284;48.086;-1.652;2022-12-18T07:08:09;29.33;;;17.70;;
22230;SDS011;11284;48.086;-1.652;2022-12-18T07:10:42;29.30;;;17.35;;
22230;SDS011;11284;48.086;-1.652;2022-12-18T07:13:08;29.25;;;18.42;;
22230;SDS011;11284;48.086;-1.652;2022-12-18T07:15:34;30.27;;;18.80;;
22230;SDS011;11284;48.086;-1.652;2022-12-18T07:18:00;29.42;;;17.40;;
22230;SDS011;11284;48.086;-1.652;2022-12-18T07:20:26;28.27;;;17.88;;
22230;SDS011;11284;48.086;-1.652;2022-12-18T07:22:52;30.92;;;18.33;;
22230;SDS011;11284;48.086;-1.652;2022-12-18T07:25:18;29.60;;;18.27;;
22230;SDS011;11284;48.086;-1.652;2022-12-18T07:27:44;26.27;;;17.55;;
22230;SDS011;11284;48.086;-1.652;2022-12-18T07:30:10;26.58;;;17.63;;
22230;SDS011;11284;48.086;-1.652;2022-12-18T07:32:37;29.00;;;17.23;;
22230;SDS011;11284;48.086;-1.652;2022-12-18T07:35:03;29.13;;;17.55;;
22230;SDS011;11284;48.086;-1.652;2022-12-18T07:37:29;26.73;;;17.67;;
22230;SDS011;11284;48.086;-1.652;2022-12-18T07:39:55;30.13;;;18.45;;
22230;SDS011;11284;48.086;-1.652;2022-12-18T07:42:21;28.52;;;17.55;;
22230;SDS011;11284;48.086;-1.652;2022-12-18T07:44:57;29.48;;;17.63;;
22230;SDS011;11284;48.086;-1.652;2022-12-18T07:47:24;28.20;;;17.08;;
22230;SDS011;11284;48.086;-1.652;2022-12-18T07:49:50;30.15;;;18.35;;
22230;SDS011;11284;48.086;-1.652;2022-12-18T07:52:16;30.67;;;19.13;;
22230;SDS011;11284;48.086;-1.652;2022-12-18T07:54:42;31.27;;;18.63;;
22230;SDS011;11284;48.086;-1.652;2022-12-18T07:57:08;28.52;;;18.00;;
22230;SDS011;11284;48.086;-1.652;2022-12-18T07:59:34;30.42;;;17.42;;
22230;SDS011;11284;48.086;-1.652;2022-12-18T08:02:01;30.55;;;18.92;;
22230;SDS011;11284;48.086;-1.652;2022-12-18T08:04:27;29.70;;;17.90;;
22230;SDS011;11284;48.086;-1.652;2022-12-18T08:06:53;28.80;;;17.60;;
22230;SDS011;11284;48.086;-1.652;2022-12-18T08:09:19;30.67;;;18.52;;
22230;SDS011;11284;48.086;-1.652;2022-12-18T08:11:45;27.90;;;17.63;;
22230;SDS011;11284;48.086;-1.652;2022-12-18T08:14:11;33.00;;;18.75;;
22230;SDS011;11284;48.086;-1.652;2022-12-18T08:16:37;30.38;;;19.30;;
22230;SDS011;11284;48.086;-1.652;2022-12-18T08:19:03;28.73;;;18.35;;
22230;SDS011;11284;48.086;-1.652;2022-12-18T08:21:29;30.90;;;19.33;;
22230;SDS011;11284;48.086;-1.652;2022-12-18T08:23:56;30.77;;;18.25;;
22230;SDS011;11284;48.086;-1.652;2022-12-18T08:26:23;28.83;;;18.02;;
22230;SDS011;11284;48.086;-1.652;2022-12-18T08:28:50;30.35;;;18.98;;
22230;SDS011;11284;48.086;-1.652;2022-12-18T08:31:17;29.65;;;18.98;;
22230;SDS011;11284;48.086;-1.652;2022-12-18T08:33:43;29.38;;;18.45;;
22230;SDS011;11284;48.086;-1.652;2022-12-18T08:36:09;32.45;;;18.73;;
22230;SDS011;11284;48.086;-1.652;2022-12-18T08:38:35;31.13;;;19.00;;
22230;SDS011;11284;48.086;-1.652;2022-12-18T08:41:05;31.45;;;19.27;;
22230;SDS011;11284;48.086;-1.652;2022-12-18T08:43:32;31.40;;;18.73;;
22230;SDS011;11284;48.086;-1.652;2022-12-18T08:46:17;39.70;;;19.92;;
22230;SDS011;11284;48.086;-1.652;2022-12-18T08:48:43;30.70;;;18.55;;
22230;SDS011;11284;48.086;-1.652;2022-12-18T08:51:09;32.65;;;18.75;;
22230;SDS011;11284;48.086;-1.652;2022-12-18T08:53:36;35.40;;;20.05;;
22230;SDS011;11284;48.086;-1.652;2022-12-18T08:56:02;32.92;;;19.83;;
22230;SDS011;11284;48.086;-1.652;2022-12-18T08:58:29;31.58;;;19.83;;
22230;SDS011;11284;48.086;-1.652;2022-12-18T09:01:01;34.95;;;19.95;;
22230;SDS011;11284;48.086;-1.652;2022-12-18T09:03:27;33.05;;;20.33;;
22230;SDS011;11284;48.086;-1.652;2022-12-18T09:05:54;32.90;;;19.13;;
22230;SDS011;11284;48.086;-1.652;2022-12-18T09:08:20;30.83;;;18.73;;
22230;SDS011;11284;48.086;-1.652;2022-12-18T09:10:47;29.27;;;18.70;;
22230;SDS011;11284;48.086;-1.652;2022-12-18T09:13:13;31.15;;;18.15;;
22230;SDS011;11284;48.086;-1.652;2022-12-18T09:15:43;31.17;;;18.92;;
22230;SDS011;11284;48.086;-1.652;2022-12-18T09:18:10;34.03;;;20.00;;
22230;SDS011;11284;48.086;-1.652;2022-12-18T09:20:37;33.72;;;19.88;;
22230;SDS011;11284;48.086;-1.652;2022-12-18T09:23:04;33.00;;;19.42;;
22230;SDS011;11284;48.086;-1.652;2022-12-18T09:25:30;32.45;;;20.02;;
22230;SDS011;11284;48.086;-1.652;2022-12-18T09:28:00;33.92;;;19.65;;
22230;SDS011;11284;48.086;-1.652;2022-12-18T09:30:27;33.90;;;20.00;;
22230;SDS011;11284;48.086;-1.652;2022-12-18T09:32:53;45.13;;;27.92;;
22230;SDS011;11284;48.086;-1.652;2022-12-18T09:35:19;39.45;;;23.15;;
22230;SDS011;11284;48.086;-1.652;2022-12-18T09:37:45;38.13;;;23.75;;
22230;SDS011;11284;48.086;-1.652;2022-12-18T09:40:14;36.55;;;21.75;;
22230;SDS011;11284;48.086;-1.652;2022-12-18T09:42:40;36.65;;;22.00;;
22230;SDS011;11284;48.086;-1.652;2022-12-18T09:45:11;36.15;;;22.02;;
22230;SDS011;11284;48.086;-1.652;2022-12-18T09:47:39;33.00;;;20.15;;
22230;SDS011;11284;48.086;-1.652;2022-12-18T09:50:28;36.10;;;20.67;;
22230;SDS011;11284;48.086;-1.652;2022-12-18T09:52:54;35.97;;;21.42;;
22230;SDS011;11284;48.086;-1.652;2022-12-18T09:55:31;33.95;;;21.52;;
22230;SDS011;11284;48.086;-1.652;2022-12-18T09:58:04;35.80;;;21.13;;
22230;SDS011;11284;48.086;-1.652;2022-12-18T10:00:32;35.03;;;21.23;;
22230;SDS011;11284;48.086;-1.652;2022-12-18T10:02:59;35.97;;;21.02;;
22230;SDS011;11284;48.086;-1.652;2022-12-18T10:08:13;37.10;;;21.77;;
22230;SDS011;11284;48.086;-1.652;2022-12-18T10:10:51;39.80;;;21.77;;
22230;SDS011;11284;48.086;-1.652;2022-12-18T10:13:34;38.78;;;22.80;;
22230;SDS011;11284;48.086;-1.652;2022-12-18T10:21:21;36.58;;;21.60;;
22230;SDS011;11284;48.086;-1.652;2022-12-18T10:26:16;38.00;;;22.10;;
22230;SDS011;11284;48.086;-1.652;2022-12-18T10:28:42;34.55;;;19.77;;
22230;SDS011;11284;48.086;-1.652;2022-12-18T10:31:16;42.92;;;22.58;;
22230;SDS011;11284;48.086;-1.652;2022-12-18T10:33:43;38.13;;;21.52;;
22230;SDS011;11284;48.086;-1.652;2022-12-18T10:36:09;39.80;;;21.45;;
22230;SDS011;11284;48.086;-1.652;2022-12-18T10:38:35;37.63;;;21.75;;
22230;SDS011;11284;48.086;-1.652;2022-12-18T10:41:02;40.08;;;22.40;;
22230;SDS011;11284;48.086;-1.652;2022-12-18T10:48:31;39.10;;;21.70;;
22230;SDS011;11284;48.086;-1.652;2022-12-18T10:50:57;38.08;;;22.58;;
22230;SDS011;11284;48.086;-1.652;2022-12-18T10:53:24;39.70;;;21.48;;
22230;SDS011;11284;48.086;-1.652;2022-12-18T10:55:52;39.17;;;22.33;;
22230;SDS011;11284;48.086;-1.652;2022-12-18T11:03:39;39.50;;;21.45;;
22230;SDS011;11284;48.086;-1.652;2022-12-18T11:08:31;39.83;;;21.75;;
22230;SDS011;11284;48.086;-1.652;2022-12-18T11:10:57;38.92;;;21.73;;
22230;SDS011;11284;48.086;-1.652;2022-12-18T11:13:24;37.08;;;22.35;;
22230;SDS011;11284;48.086;-1.652;2022-12-18T11:15:51;36.55;;;22.27;;
22230;SDS011;11284;48.086;-1.652;2022-12-18T11:18:30;37.30;;;21.60;;
22230;SDS011;11284;48.086;-1.652;2022-12-18T11:21:18;40.60;;;22.80;;
22230;SDS011;11284;48.086;-1.652;2022-12-18T11:23:49;35.35;;;22.30;;
22230;SDS011;11284;48.086;-1.652;2022-12-18T11:26:15;37.42;;;21.92;;
22230;SDS011;11284;48.086;-1.652;2022-12-18T11:28:43;35.33;;;20.90;;
22230;SDS011;11284;48.086;-1.652;2022-12-18T11:31:20;35.25;;;22.58;;
22230;SDS011;11284;48.086;-1.652;2022-12-18T11:33:54;35.08;;;21.52;;
22230;SDS011;11284;48.086;-1.652;2022-12-18T11:36:22;36.38;;;20.95;;
22230;SDS011;11284;48.086;-1.652;2022-12-18T11:38:49;36.95;;;21.70;;
22230;SDS011;11284;48.086;-1.652;2022-12-18T11:41:19;40.28;;;23.08;;
22230;SDS011;11284;48.086;-1.652;2022-12-18T11:49:10;33.35;;;21.55;;
22230;SDS011;11284;48.086;-1.652;2022-12-18T11:51:41;34.13;;;21.10;;
22230;SDS011;11284;48.086;-1.652;2022-12-18T11:54:12;35.60;;;21.38;;
22230;SDS011;11284;48.086;-1.652;2022-12-18T11:56:41;34.83;;;21.70;;
22230;SDS011;11284;48.086;-1.652;2022-12-18T11:59:13;32.75;;;20.90;;
22230;SDS011;11284;48.086;-1.652;2022-12-18T12:01:53;33.35;;;20.77;;
22230;SDS011;11284;48.086;-1.652;2022-12-18T12:06:57;34.85;;;21.17;;
22230;SDS011;11284;48.086;-1.652;2022-12-18T12:10:32;32.05;;;20.85;;
22230;SDS011;11284;48.086;-1.652;2022-12-18T12:17:28;33.58;;;22.27;;
22230;SDS011;11284;48.086;-1.652;2022-12-18T12:20:02;32.10;;;20.70;;
22230;SDS011;11284;48.086;-1.652;2022-12-18T12:30:08;32.40;;;20.90;;
22230;SDS011;11284;48.086;-1.652;2022-12-18T12:32:38;34.05;;;20.70;;
22230;SDS011;11284;48.086;-1.652;2022-12-18T12:37:39;35.38;;;21.90;;
22230;SDS011;11284;48.086;-1.652;2022-12-18T12:40:11;31.02;;;20.58;;
22230;SDS011;11284;48.086;-1.652;2022-12-18T12:42:40;33.85;;;21.45;;
22230;SDS011;11284;48.086;-1.652;2022-12-18T12:45:44;33.05;;;20.75;;
22230;SDS011;11284;48.086;-1.652;2022-12-18T12:48:55;32.15;;;20.60;;
22230;SDS011;11284;48.086;-1.652;2022-12-18T12:51:03;35.08;;;21.33;;
22230;SDS011;11284;48.086;-1.652;2022-12-18T12:53:33;37.88;;;21.02;;
22230;SDS011;11284;48.086;-1.652;2022-12-18T12:56:00;34.05;;;20.83;;
22230;SDS011;11284;48.086;-1.652;2022-12-18T13:07:12;36.47;;;21.67;;
22230;SDS011;11284;48.086;-1.652;2022-12-18T13:09:02;37.55;;;21.90;;
22230;SDS011;11284;48.086;-1.652;2022-12-18T13:11:36;34.58;;;22.23;;
22230;SDS011;11284;48.086;-1.652;2022-12-18T13:14:29;34.15;;;21.38;;
22230;SDS011;11284;48.086;-1.652;2022-12-18T13:19:41;36.17;;;21.67;;
22230;SDS011;11284;48.086;-1.652;2022-12-18T13:22:25;33.45;;;22.02;;
22230;SDS011;11284;48.086;-1.652;2022-12-18T13:24:54;35.97;;;21.88;;
22230;SDS011;11284;48.086;-1.652;2022-12-18T13:30:22;36.58;;;23.10;;
22230;SDS011;11284;48.086;-1.652;2022-12-18T13:33:12;36.90;;;23.20;;
22230;SDS011;11284;48.086;-1.652;2022-12-18T13:35:37;37.70;;;23.35;;
22230;SDS011;11284;48.086;-1.652;2022-12-18T13:38:18;38.20;;;23.92;;
22230;SDS011;11284;48.086;-1.652;2022-12-18T13:48:23;39.90;;;24.73;;
22230;SDS011;11284;48.086;-1.652;2022-12-18T13:53:18;42.65;;;24.45;;
22230;SDS011;11284;48.086;-1.652;2022-12-18T13:55:46;38.65;;;23.55;;
22230;SDS011;11284;48.086;-1.652;2022-12-18T13:58:12;38.53;;;22.15;;
22230;SDS011;11284;48.086;-1.652;2022-12-18T14:00:41;41.00;;;24.70;;
22230;SDS011;11284;48.086;-1.652;2022-12-18T14:03:18;41.53;;;25.27;;
22230;SDS011;11284;48.086;-1.652;2022-12-18T14:05:44;39.92;;;23.77;;
22230;SDS011;11284;48.086;-1.652;2022-12-18T14:08:12;39.03;;;24.48;;
22230;SDS011;11284;48.086;-1.652;2022-12-18T14:10:40;35.45;;;22.25;;
22230;SDS011;11284;48.086;-1.652;2022-12-18T14:13:07;35.65;;;22.80;;
22230;SDS011;11284;48.086;-1.652;2022-12-18T14:15:35;38.25;;;23.02;;
22230;SDS011;11284;48.086;-1.652;2022-12-18T14:18:03;35.65;;;21.75;;
22230;SDS011;11284;48.086;-1.652;2022-12-18T14:20:39;33.78;;;20.50;;
22230;SDS011;11284;48.086;-1.652;2022-12-18T14:23:24;31.85;;;20.38;;
22230;SDS011;11284;48.086;-1.652;2022-12-18T14:25:50;35.92;;;22.90;;
22230;SDS011;11284;48.086;-1.652;2022-12-18T14:28:16;36.90;;;22.60;;
22230;SDS011;11284;48.086;-1.652;2022-12-18T14:30:43;35.25;;;21.73;;
22230;SDS011;11284;48.086;-1.652;2022-12-18T14:33:10;38.95;;;22.63;;
22230;SDS011;11284;48.086;-1.652;2022-12-18T14:35:38;37.20;;;22.42;;
22230;SDS011;11284;48.086;-1.652;2022-12-18T14:41:04;34.22;;;21.48;;
22230;SDS011;11284;48.086;-1.652;2022-12-18T14:43:35;40.30;;;22.83;;
22230;SDS011;11284;48.086;-1.652;2022-12-18T14:46:01;39.72;;;23.08;;
22230;SDS011;11284;48.086;-1.652;2022-12-18T14:48:38;36.85;;;23.08;;
22230;SDS011;11284;48.086;-1.652;2022-12-18T14:51:15;38.08;;;22.40;;
22230;SDS011;11284;48.086;-1.652;2022-12-18T14:53:42;34.63;;;22.38;;
22230;SDS011;11284;48.086;-1.652;2022-12-18T14:56:12;35.05;;;22.80;;
22230;SDS011;11284;48.086;-1.652;2022-12-18T14:58:39;39.35;;;23.50;;
22230;SDS011;11284;48.086;-1.652;2022-12-18T15:01:17;38.95;;;23.30;;
22230;SDS011;11284;48.086;-1.652;2022-12-18T15:03:43;36.55;;;22.58;;
22230;SDS011;11284;48.086;-1.652;2022-12-18T15:06:24;38.30;;;23.52;;
22230;SDS011;11284;48.086;-1.652;2022-12-18T15:08:51;39.28;;;23.30;;
22230;SDS011;11284;48.086;-1.652;2022-12-18T15:11:54;42.25;;;25.00;;
22230;SDS011;11284;48.086;-1.652;2022-12-18T15:14:23;36.38;;;22.92;;
22230;SDS011;11284;48.086;-1.652;2022-12-18T15:16:53;41.33;;;24.25;;
22230;SDS011;11284;48.086;-1.652;2022-12-18T15:19:20;38.35;;;24.00;;
22230;SDS011;11284;48.086;-1.652;2022-12-18T15:21:47;35.85;;;23.02;;
22230;SDS011;11284;48.086;-1.652;2022-12-18T15:24:20;38.35;;;23.35;;
22230;SDS011;11284;48.086;-1.652;2022-12-18T15:26:49;33.65;;;22.30;;
22230;SDS011;11284;48.086;-1.652;2022-12-18T15:29:18;35.17;;;22.08;;
22230;SDS011;11284;48.086;-1.652;2022-12-18T15:32:03;38.38;;;22.23;;
22230;SDS011;11284;48.086;-1.652;2022-12-18T15:34:30;31.50;;;20.48;;
22230;SDS011;11284;48.086;-1.652;2022-12-18T15:36:57;33.75;;;20.20;;
22230;SDS011;11284;48.086;-1.652;2022-12-18T15:39:23;33.95;;;21.23;;
22230;SDS011;11284;48.086;-1.652;2022-12-18T15:41:49;32.08;;;20.27;;
22230;SDS011;11284;48.086;-1.652;2022-12-18T15:44:34;29.45;;;19.40;;
22230;SDS011;11284;48.086;-1.652;2022-12-18T15:47:00;31.20;;;19.63;;
22230;SDS011;11284;48.086;-1.652;2022-12-18T15:49:26;27.80;;;18.17;;
22230;SDS011;11284;48.086;-1.652;2022-12-18T15:51:53;30.80;;;19.33;;
22230;SDS011;11284;48.086;-1.652;2022-12-18T15:54:20;30.55;;;18.58;;
22230;SDS011;11284;48.086;-1.652;2022-12-18T15:57:08;29.10;;;18.02;;
22230;SDS011;11284;48.086;-1.652;2022-12-18T15:59:52;25.98;;;17.75;;